Time;durP1;ratioP1;P1;durP2;ratioP2;P2;SDS_P1;SDS_P2;PMS_P1;PMS_P2;Temp;Humidity;BMP_temperature;BMP_pressure;BME280_temperature;BME280_humidity;BME280_pressure;Samples;Min_cycle;Max_cycle;Signal;HPM_P1;HPM_P2
2023/07/01 00:01:50;;;;;;;10.13;7.78;;;;;;;;;;761579;182;957953;-65
2023/07/01 00:04:16;;;;;;;9.53;7.93;;;;;;;;;;766291;181;915327;-60
2023/07/01 00:06:42;;;;;;;10.97;8.20;;;;;;;;;;759896;182;906115;-60
2023/07/01 00:09:09;;;;;;;8.70;7.80;;;;;;;;;;762699;182;916772;-61
2023/07/01 00:11:34;;;;;;;10.90;8.07;;;;;;;;;;755007;182;914200;-65
2023/07/01 00:14:00;;;;;;;8.43;7.63;;;;;;;;;;752582;184;918555;-60
2023/07/01 00:16:27;;;;;;;9.00;8.10;;;;;;;;;;765400;181;919647;-66
2023/07/01 00:18:51;;;;;;;9.70;7.60;;;;;;;;;;764402;180;916196;-60
2023/07/01 00:21:18;;;;;;;8.87;7.77;;;;;;;;;;764976;182;917451;-59
2023/07/01 00:23:43;;;;;;;8.67;7.77;;;;;;;;;;762464;182;937561;-61
2023/07/01 00:26:09;;;;;;;9.70;8.50;;;;;;;;;;761459;182;919985;-60
2023/07/01 00:28:35;;;;;;;12.03;8.20;;;;;;;;;;765680;182;918256;-66
2023/07/01 00:31:01;;;;;;;9.67;8.63;;;;;;;;;;764038;182;916178;-60
2023/07/01 00:33:26;;;;;;;13.27;7.90;;;;;;;;;;763317;182;918800;-61
2023/07/01 00:35:52;;;;;;;9.93;8.20;;;;;;;;;;765320;182;921450;-64
2023/07/01 00:38:18;;;;;;;8.90;8.00;;;;;;;;;;766835;182;870142;-60
2023/07/01 00:40:44;;;;;;;12.60;9.30;;;;;;;;;;761098;182;924237;-60
2023/07/01 00:43:10;;;;;;;9.37;8.43;;;;;;;;;;764459;182;919737;-64
2023/07/01 00:45:36;;;;;;;14.07;9.40;;;;;;;;;;765897;182;922981;-60
2023/07/01 00:48:02;;;;;;;11.70;10.50;;;;;;;;;;761397;181;923313;-65
2023/07/01 00:50:27;;;;;;;8.70;7.90;;;;;;;;;;762131;182;916454;-65
2023/07/01 00:52:53;;;;;;;11.60;10.40;;;;;;;;;;769239;181;918204;-65
2023/07/01 00:55:19;;;;;;;11.60;10.20;;;;;;;;;;761937;182;918467;-60
2023/07/01 00:57:45;;;;;;;11.27;9.50;;;;;;;;;;762171;182;915928;-65
2023/07/01 01:00:12;;;;;;;11.53;10.43;;;;;;;;;;765792;182;916168;-60
2023/07/01 01:02:38;;;;;;;10.85;9.77;;;;;;;;;;761848;180;919784;-60
2023/07/01 01:05:10;;;;;;;11.93;10.73;;;;;;;;;;759133;182;919123;-65
2023/07/01 01:07:31;;;;;;;12.20;10.57;;;;;;;;;;759611;182;917511;-65
2023/07/01 01:09:57;;;;;;;13.97;11.77;;;;;;;;;;765859;182;919367;-66
2023/07/01 01:12:23;;;;;;;13.73;10.70;;;;;;;;;;761791;182;919125;-65
2023/07/01 01:14:49;;;;;;;13.43;12.00;;;;;;;;;;757882;182;1020640;-66
2023/07/01 01:17:14;;;;;;;13.83;12.13;;;;;;;;;;770407;182;919566;-59
2023/07/01 01:19:40;;;;;;;12.80;11.40;;;;;;;;;;760339;181;918883;-59
2023/07/01 01:22:07;;;;;;;14.60;12.50;;;;;;;;;;764939;180;911960;-65
2023/07/01 01:24:33;;;;;;;15.13;12.63;;;;;;;;;;751663;186;916197;-60
2023/07/01 01:26:59;;;;;;;12.70;11.30;;;;;;;;;;768527;179;919346;-66
2023/07/01 01:29:25;;;;;;;14.77;13.27;;;;;;;;;;762313;181;920944;-59
2023/07/01 01:31:50;;;;;;;16.57;13.17;;;;;;;;;;763076;181;914177;-60
2023/07/01 01:34:16;;;;;;;17.53;14.90;;;;;;;;;;766729;182;919227;-60
2023/07/01 01:36:44;;;;;;;15.87;14.27;;;;;;;;;;750673;186;921785;-65
2023/07/01 01:39:10;;;;;;;15.77;14.07;;;;;;;;;;755086;182;920951;-65
2023/07/01 01:41:36;;;;;;;18.20;15.77;;;;;;;;;;768687;181;916095;-60
2023/07/01 01:44:03;;;;;;;20.80;15.73;;;;;;;;;;756830;182;813980;-60
2023/07/01 01:46:28;;;;;;;18.90;16.40;;;;;;;;;;763034;181;914575;-65
2023/07/01 01:48:55;;;;;;;17.53;15.63;;;;;;;;;;761083;182;943231;-64
2023/07/01 01:51:20;;;;;;;22.60;15.90;;;;;;;;;;770856;182;894849;-60
2023/07/01 01:53:46;;;;;;;18.20;16.03;;;;;;;;;;761178;181;919749;-60
2023/07/01 01:56:12;;;;;;;20.30;18.20;;;;;;;;;;759457;182;919566;-60
2023/07/01 01:58:38;;;;;;;20.40;18.30;;;;;;;;;;765358;182;920323;-65
2023/07/01 02:01:04;;;;;;;21.37;17.83;;;;;;;;;;765373;182;919518;-65
2023/07/01 02:03:30;;;;;;;20.88;18.67;;;;;;;;;;761496;182;919086;-66
2023/07/01 02:05:56;;;;;;;23.30;17.90;;;;;;;;;;756890;182;918799;-60
2023/07/01 02:08:21;;;;;;;22.93;20.27;;;;;;;;;;758543;182;828494;-60
2023/07/01 02:10:47;;;;;;;21.70;19.40;;;;;;;;;;764816;182;926685;-65
2023/07/01 02:13:14;;;;;;;24.63;18.33;;;;;;;;;;765077;182;919148;-60
2023/07/01 02:15:39;;;;;;;22.77;19.00;;;;;;;;;;764844;182;919215;-65
2023/07/01 02:18:05;;;;;;;22.70;19.40;;;;;;;;;;763635;182;922354;-64
2023/07/01 02:20:31;;;;;;;23.27;20.83;;;;;;;;;;760631;182;918988;-65
2023/07/01 02:22:57;;;;;;;23.67;21.17;;;;;;;;;;767654;182;923582;-65
2023/07/01 02:25:23;;;;;;;23.20;20.80;;;;;;;;;;757534;182;916863;-64
2023/07/01 02:27:48;;;;;;;24.77;22.02;;;;;;;;;;748561;182;920125;-65
2023/07/01 02:30:14;;;;;;;26.63;21.53;;;;;;;;;;768639;182;924526;-66
2023/07/01 02:32:40;;;;;;;25.77;22.20;;;;;;;;;;761115;182;918658;-66
2023/07/01 02:35:06;;;;;;;29.53;23.63;;;;;;;;;;763026;182;919842;-60
2023/07/01 02:37:32;;;;;;;25.55;22.02;;;;;;;;;;763270;182;921289;-59
2023/07/01 02:39:58;;;;;;;29.47;23.30;;;;;;;;;;765218;182;821737;-60
2023/07/01 02:42:24;;;;;;;25.57;22.80;;;;;;;;;;767156;182;915654;-66
2023/07/01 02:44:50;;;;;;;26.80;22.50;;;;;;;;;;764630;180;919623;-61
2023/07/01 02:47:16;;;;;;;25.50;21.53;;;;;;;;;;765709;182;917630;-61
2023/07/01 02:49:41;;;;;;;26.37;23.27;;;;;;;;;;759260;183;818601;-61
2023/07/01 02:52:08;;;;;;;27.60;23.57;;;;;;;;;;764536;182;919320;-61
2023/07/01 02:54:34;;;;;;;26.83;23.77;;;;;;;;;;763273;183;896439;-66
2023/07/01 02:57:00;;;;;;;28.50;23.00;;;;;;;;;;764181;182;865929;-65
2023/07/01 02:59:26;;;;;;;26.70;21.17;;;;;;;;;;754787;179;918351;-62
2023/07/01 03:01:51;;;;;;;25.90;22.67;;;;;;;;;;761825;182;918416;-64
2023/07/01 03:04:17;;;;;;;25.50;22.80;;;;;;;;;;757259;182;918530;-65
2023/07/01 03:06:43;;;;;;;33.17;23.63;;;;;;;;;;758814;181;919382;-64
2023/07/01 03:09:09;;;;;;;27.07;24.37;;;;;;;;;;763252;181;916489;-64
2023/07/01 03:11:35;;;;;;;25.63;22.20;;;;;;;;;;764187;182;918784;-64
2023/07/01 03:14:01;;;;;;;25.73;22.77;;;;;;;;;;764930;182;919435;-64
2023/07/01 03:16:27;;;;;;;30.40;23.97;;;;;;;;;;750851;184;919301;-65
2023/07/01 03:18:52;;;;;;;24.47;21.97;;;;;;;;;;763013;183;918587;-66
2023/07/01 03:21:18;;;;;;;24.87;22.30;;;;;;;;;;763625;181;919026;-65
2023/07/01 03:23:44;;;;;;;24.12;20.33;;;;;;;;;;756212;182;918354;-65
2023/07/01 03:26:10;;;;;;;26.13;23.27;;;;;;;;;;768696;181;919001;-66
2023/07/01 03:28:36;;;;;;;31.10;22.30;;;;;;;;;;763083;182;918727;-67
2023/07/01 03:31:04;;;;;;;25.63;22.93;;;;;;;;;;764395;182;918684;-66
2023/07/01 03:33:28;;;;;;;23.67;21.27;;;;;;;;;;762457;182;920499;-66
2023/07/01 03:35:53;;;;;;;25.50;22.80;;;;;;;;;;767809;181;816410;-66
2023/07/01 03:38:19;;;;;;;26.63;22.43;;;;;;;;;;765945;182;818146;-67
2023/07/01 03:40:45;;;;;;;24.80;22.13;;;;;;;;;;763489;181;818983;-67
2023/07/01 03:43:11;;;;;;;25.43;22.63;;;;;;;;;;765864;182;829111;-67
2023/07/01 03:45:37;;;;;;;24.30;21.70;;;;;;;;;;756652;182;918652;-67
2023/07/01 03:48:03;;;;;;;25.07;22.30;;;;;;;;;;764657;181;918735;-66
2023/07/01 03:50:28;;;;;;;25.90;23.20;;;;;;;;;;773082;180;919204;-67
2023/07/01 03:52:54;;;;;;;30.30;23.57;;;;;;;;;;763900;181;919306;-67
2023/07/01 03:55:20;;;;;;;24.53;21.60;;;;;;;;;;770709;180;835916;-68
2023/07/01 03:57:46;;;;;;;28.60;22.52;;;;;;;;;;769903;182;912340;-67
2023/07/01 04:00:17;;;;;;;25.37;22.60;;;;;;;;;;764547;181;908929;-68
2023/07/01 04:02:47;;;;;;;29.10;22.87;;;;;;;;;;764344;183;918676;-68
2023/07/01 04:05:13;;;;;;;30.83;20.47;;;;;;;;;;753814;181;917824;-67
2023/07/01 04:07:40;;;;;;;21.63;19.53;;;;;;;;;;769440;181;919390;-67
2023/07/01 04:10:07;;;;;;;26.20;20.50;;;;;;;;;;764056;180;920405;-66
2023/07/01 04:12:33;;;;;;;21.03;18.73;;;;;;;;;;744642;185;918156;-67
2023/07/01 04:14:59;;;;;;;20.10;17.97;;;;;;;;;;754675;183;918222;-66
2023/07/01 04:17:24;;;;;;;27.53;18.23;;;;;;;;;;768345;183;926117;-64
2023/07/01 04:19:50;;;;;;;23.00;17.97;;;;;;;;;;761198;183;920624;-66
2023/07/01 04:22:16;;;;;;;19.40;17.40;;;;;;;;;;761783;182;918805;-66
2023/07/01 04:24:42;;;;;;;25.67;18.67;;;;;;;;;;767690;182;915398;-67
2023/07/01 04:27:08;;;;;;;19.00;17.10;;;;;;;;;;765596;182;919402;-68
2023/07/01 04:29:34;;;;;;;21.50;18.00;;;;;;;;;;762224;181;918682;-64
2023/07/01 04:31:59;;;;;;;19.23;17.17;;;;;;;;;;762473;183;916107;-64
2023/07/01 04:34:25;;;;;;;21.83;17.13;;;;;;;;;;757845;181;842042;-67
2023/07/01 04:36:51;;;;;;;19.43;16.30;;;;;;;;;;758662;182;914904;-68
2023/07/01 04:39:17;;;;;;;19.67;17.53;;;;;;;;;;765911;182;872888;-66
2023/07/01 04:41:43;;;;;;;20.10;18.03;;;;;;;;;;762936;182;918807;-63
2023/07/01 04:44:09;;;;;;;19.60;17.60;;;;;;;;;;760962;182;868239;-67
2023/07/01 04:46:34;;;;;;;20.00;17.47;;;;;;;;;;761069;182;886055;-63
2023/07/01 04:49:00;;;;;;;19.07;16.97;;;;;;;;;;769279;182;836948;-62
2023/07/01 04:51:26;;;;;;;19.10;17.10;;;;;;;;;;751790;184;908850;-66
2023/07/01 04:53:52;;;;;;;19.30;15.87;;;;;;;;;;757666;182;922222;-66
2023/07/01 04:56:23;;;;;;;18.93;16.93;;;;;;;;;;770756;182;932299;-64
2023/07/01 04:58:44;;;;;;;19.73;16.83;;;;;;;;;;761548;183;918661;-64
2023/07/01 05:01:10;;;;;;;19.10;16.90;;;;;;;;;;762879;182;918567;-65
2023/07/01 05:03:35;;;;;;;20.83;14.87;;;;;;;;;;767089;182;919399;-65
2023/07/01 05:06:02;;;;;;;16.17;14.53;;;;;;;;;;768505;181;911981;-66
2023/07/01 05:08:27;;;;;;;18.80;15.80;;;;;;;;;;766329;181;910296;-63
2023/07/01 05:10:53;;;;;;;19.30;15.23;;;;;;;;;;762279;181;916137;-67
2023/07/01 05:13:19;;;;;;;17.17;15.37;;;;;;;;;;761757;181;913494;-62
2023/07/01 05:15:45;;;;;;;16.00;13.73;;;;;;;;;;748828;184;920854;-63
2023/07/01 05:18:11;;;;;;;16.27;14.60;;;;;;;;;;764988;181;913319;-65
2023/07/01 05:20:36;;;;;;;14.87;13.10;;;;;;;;;;766782;181;808090;-65
2023/07/01 05:23:02;;;;;;;17.60;13.30;;;;;;;;;;760474;182;917899;-63
2023/07/01 05:25:28;;;;;;;15.43;14.03;;;;;;;;;;765265;182;917060;-63
2023/07/01 05:27:55;;;;;;;15.25;13.75;;;;;;;;;;762118;182;920212;-65
2023/07/01 05:30:20;;;;;;;19.33;15.63;;;;;;;;;;767630;182;940523;-63
2023/07/01 05:32:46;;;;;;;14.80;13.30;;;;;;;;;;764959;182;917338;-62
2023/07/01 05:35:12;;;;;;;15.50;13.90;;;;;;;;;;761147;182;921031;-63
2023/07/01 05:37:38;;;;;;;14.50;12.97;;;;;;;;;;766633;182;919975;-67
2023/07/01 05:40:04;;;;;;;17.27;13.10;;;;;;;;;;759013;182;800264;-64
2023/07/01 05:42:30;;;;;;;16.20;14.00;;;;;;;;;;763586;182;819757;-66
2023/07/01 05:44:57;;;;;;;18.50;13.97;;;;;;;;;;767335;182;913298;-66
2023/07/01 05:47:23;;;;;;;15.67;13.97;;;;;;;;;;740417;185;916904;-65
2023/07/01 05:49:49;;;;;;;15.13;13.60;;;;;;;;;;756068;183;918891;-64
2023/07/01 05:52:15;;;;;;;16.40;13.07;;;;;;;;;;758460;182;918752;-63
2023/07/01 05:54:40;;;;;;;17.63;15.67;;;;;;;;;;760675;182;816449;-64
2023/07/01 05:57:06;;;;;;;24.17;18.90;;;;;;;;;;765573;179;919202;-63
2023/07/01 05:59:32;;;;;;;17.10;15.30;;;;;;;;;;754720;182;919247;-64
2023/07/01 06:01:58;;;;;;;17.17;15.37;;;;;;;;;;765126;182;816962;-62
2023/07/01 06:04:24;;;;;;;22.80;19.50;;;;;;;;;;758824;182;920465;-63
2023/07/01 06:06:50;;;;;;;18.53;16.63;;;;;;;;;;763818;182;919422;-66
2023/07/01 06:09:16;;;;;;;24.80;19.70;;;;;;;;;;767832;182;918250;-67
2023/07/01 06:11:41;;;;;;;23.03;17.70;;;;;;;;;;767789;182;910108;-62
2023/07/01 06:14:07;;;;;;;24.37;21.70;;;;;;;;;;766048;179;921066;-63
2023/07/01 06:16:33;;;;;;;24.87;20.20;;;;;;;;;;763198;182;909828;-63
2023/07/01 06:18:59;;;;;;;24.77;22.00;;;;;;;;;;760360;179;933688;-66
2023/07/01 06:21:25;;;;;;;26.47;23.23;;;;;;;;;;745781;183;919245;-62
2023/07/01 06:23:51;;;;;;;23.40;20.60;;;;;;;;;;762500;181;917217;-62
2023/07/01 06:26:16;;;;;;;28.67;22.37;;;;;;;;;;765886;182;916521;-62
2023/07/01 06:28:42;;;;;;;28.50;22.83;;;;;;;;;;761696;182;918729;-61
2023/07/01 06:31:08;;;;;;;26.43;22.13;;;;;;;;;;763943;182;818197;-61
2023/07/01 06:33:36;;;;;;;25.03;22.33;;;;;;;;;;772452;181;820494;-62
2023/07/01 06:36:02;;;;;;;28.77;25.53;;;;;;;;;;757535;182;918771;-65
2023/07/01 06:38:28;;;;;;;27.37;23.83;;;;;;;;;;760625;182;921357;-65
2023/07/01 06:40:53;;;;;;;34.73;30.83;;;;;;;;;;766320;182;915819;-61
2023/07/01 06:43:19;;;;;;;26.97;22.30;;;;;;;;;;765408;182;920122;-66
2023/07/01 06:45:45;;;;;;;29.73;24.60;;;;;;;;;;761879;182;926055;-67
2023/07/01 06:48:11;;;;;;;28.03;25.10;;;;;;;;;;761247;182;839280;-66
2023/07/01 06:50:37;;;;;;;30.53;24.43;;;;;;;;;;773628;181;920424;-60
2023/07/01 06:53:03;;;;;;;29.90;25.90;;;;;;;;;;765380;182;921024;-61
2023/07/01 06:55:29;;;;;;;29.97;26.27;;;;;;;;;;762374;183;924636;-60
2023/07/01 06:57:54;;;;;;;25.93;23.00;;;;;;;;;;770549;181;828279;-61
2023/07/01 07:00:20;;;;;;;27.50;23.63;;;;;;;;;;763160;182;919385;-61
2023/07/01 07:02:46;;;;;;;30.07;23.23;;;;;;;;;;761026;182;909092;-60
2023/07/01 07:05:12;;;;;;;26.10;21.50;;;;;;;;;;769346;182;913908;-65
2023/07/01 07:07:38;;;;;;;30.23;23.73;;;;;;;;;;760887;182;915086;-60
2023/07/01 07:10:04;;;;;;;25.33;22.10;;;;;;;;;;760516;182;921219;-61
2023/07/01 07:12:30;;;;;;;29.70;24.40;;;;;;;;;;760723;182;919545;-65
2023/07/01 07:14:56;;;;;;;27.83;24.13;;;;;;;;;;770092;183;831984;-61
2023/07/01 07:17:22;;;;;;;25.63;22.00;;;;;;;;;;764302;181;920033;-60
2023/07/01 07:19:48;;;;;;;25.70;22.83;;;;;;;;;;761378;182;923708;-63
2023/07/01 07:22:13;;;;;;;26.53;20.93;;;;;;;;;;767774;182;816702;-65
2023/07/01 07:24:39;;;;;;;28.20;23.50;;;;;;;;;;763196;182;916422;-66
2023/07/01 07:27:06;;;;;;;25.70;22.13;;;;;;;;;;763560;181;918114;-61
2023/07/01 07:29:33;;;;;;;26.43;22.20;;;;;;;;;;771412;181;758467;-66
2023/07/01 07:31:57;;;;;;;28.23;23.17;;;;;;;;;;764277;180;863831;-66
2023/07/01 07:34:23;;;;;;;27.60;22.23;;;;;;;;;;765049;182;918943;-62
2023/07/01 07:36:49;;;;;;;27.17;24.37;;;;;;;;;;763666;181;915904;-66
2023/07/01 07:39:15;;;;;;;27.87;24.27;;;;;;;;;;761165;182;917557;-61
2023/07/01 07:41:41;;;;;;;30.77;24.10;;;;;;;;;;760117;181;849153;-66
2023/07/01 07:44:06;;;;;;;27.13;21.20;;;;;;;;;;761356;181;938064;-65
2023/07/01 07:46:32;;;;;;;25.90;22.27;;;;;;;;;;768022;182;911813;-65
2023/07/01 07:48:58;;;;;;;23.80;21.30;;;;;;;;;;761769;182;918843;-65
2023/07/01 07:51:24;;;;;;;24.70;22.10;;;;;;;;;;751875;182;834845;-60
2023/07/01 07:53:50;;;;;;;30.03;21.73;;;;;;;;;;768935;182;919391;-66
2023/07/01 07:56:16;;;;;;;24.97;22.23;;;;;;;;;;765294;182;919789;-66
2023/07/01 07:58:42;;;;;;;26.60;22.10;;;;;;;;;;754938;182;916011;-66
2023/07/01 08:01:07;;;;;;;25.30;22.70;;;;;;;;;;761394;182;918931;-66
2023/07/01 08:03:33;;;;;;;25.40;22.80;;;;;;;;;;762679;182;919061;-62
2023/07/01 08:05:59;;;;;;;23.77;20.37;;;;;;;;;;764941;182;920328;-66
2023/07/01 08:08:25;;;;;;;22.83;20.43;;;;;;;;;;760168;182;921815;-64
2023/07/01 08:10:52;;;;;;;21.30;19.10;;;;;;;;;;762475;182;913369;-66
2023/07/01 08:13:17;;;;;;;21.83;19.63;;;;;;;;;;762346;182;815480;-65
2023/07/01 08:15:42;;;;;;;22.10;18.67;;;;;;;;;;750603;184;818887;-65
2023/07/01 08:18:08;;;;;;;20.57;18.40;;;;;;;;;;770002;181;818105;-67
2023/07/01 08:20:34;;;;;;;20.17;18.03;;;;;;;;;;763255;181;918393;-61
2023/07/01 08:23:00;;;;;;;23.53;18.30;;;;;;;;;;759993;182;922354;-66
2023/07/01 08:25:26;;;;;;;20.40;18.20;;;;;;;;;;762538;182;918609;-60
2023/07/01 08:27:52;;;;;;;20.37;18.33;;;;;;;;;;759522;182;919322;-61
2023/07/01 08:30:18;;;;;;;20.90;18.30;;;;;;;;;;758245;182;920993;-60
2023/07/01 08:32:44;;;;;;;20.17;18.13;;;;;;;;;;759846;182;917958;-64
2023/07/01 08:35:10;;;;;;;19.97;17.90;;;;;;;;;;766012;181;941832;-65
2023/07/01 08:37:36;;;;;;;17.27;15.50;;;;;;;;;;765576;180;816749;-65
2023/07/01 08:40:02;;;;;;;17.43;15.63;;;;;;;;;;762710;181;919092;-65
2023/07/01 08:42:43;;;;;;;16.07;14.00;;;;;;;;;;764487;182;918271;-65
2023/07/01 08:45:10;;;;;;;15.13;13.53;;;;;;;;;;756294;185;917692;-60
2023/07/01 08:47:36;;;;;;;13.50;12.10;;;;;;;;;;763641;180;918553;-61
2023/07/01 08:50:02;;;;;;;14.80;13.23;;;;;;;;;;762018;182;918640;-66
2023/07/01 08:52:28;;;;;;;11.37;9.30;;;;;;;;;;765035;182;843147;-65
2023/07/01 08:54:54;;;;;;;12.50;10.37;;;;;;;;;;756705;182;919121;-62
2023/07/01 08:57:20;;;;;;;13.87;12.47;;;;;;;;;;749930;184;918606;-62
2023/07/01 08:59:46;;;;;;;12.53;11.23;;;;;;;;;;760385;182;919020;-63
2023/07/01 09:02:11;;;;;;;15.60;11.57;;;;;;;;;;757655;183;918556;-66
2023/07/01 09:04:37;;;;;;;15.33;11.57;;;;;;;;;;755861;182;920337;-66
2023/07/01 09:07:03;;;;;;;13.63;12.23;;;;;;;;;;760607;182;921210;-67
2023/07/01 09:09:29;;;;;;;14.33;12.70;;;;;;;;;;765786;182;931410;-66
2023/07/01 09:11:55;;;;;;;12.60;11.40;;;;;;;;;;762521;182;920003;-61
2023/07/01 09:14:21;;;;;;;13.47;12.10;;;;;;;;;;758640;182;921575;-62
2023/07/01 09:16:47;;;;;;;12.07;10.87;;;;;;;;;;768625;182;880847;-61
2023/07/01 09:19:16;;;;;;;12.07;10.00;;;;;;;;;;756558;183;927160;-62
2023/07/01 09:21:39;;;;;;;13.47;12.07;;;;;;;;;;751883;182;918973;-60
2023/07/01 09:24:06;;;;;;;12.57;11.37;;;;;;;;;;761961;182;916497;-62
2023/07/01 09:26:31;;;;;;;12.63;11.40;;;;;;;;;;761547;181;919725;-62
2023/07/01 09:28:57;;;;;;;12.03;10.67;;;;;;;;;;753260;182;919259;-61
2023/07/01 09:31:22;;;;;;;12.30;11.10;;;;;;;;;;758202;182;921427;-62
2023/07/01 09:34:05;;;;;;;11.40;10.20;;;;;;;;;;767272;182;918032;-66
2023/07/01 09:36:32;;;;;;;12.57;11.33;;;;;;;;;;767470;182;817650;-67
2023/07/01 09:38:57;;;;;;;10.70;9.57;;;;;;;;;;760861;182;924553;-61
2023/07/01 09:41:24;;;;;;;11.67;10.37;;;;;;;;;;763908;182;919197;-61
2023/07/01 09:43:49;;;;;;;11.27;10.07;;;;;;;;;;763881;182;944108;-62
2023/07/01 09:46:15;;;;;;;10.57;9.40;;;;;;;;;;762047;182;915074;-62
2023/07/01 09:48:46;;;;;;;11.50;10.30;;;;;;;;;;763445;181;918968;-66
2023/07/01 09:51:12;;;;;;;12.00;10.70;;;;;;;;;;760797;181;918466;-62
2023/07/01 09:53:38;;;;;;;13.03;10.00;;;;;;;;;;766488;182;822051;-66
2023/07/01 09:56:04;;;;;;;13.13;10.60;;;;;;;;;;764941;180;941730;-66
2023/07/01 09:58:30;;;;;;;15.50;11.17;;;;;;;;;;761642;182;815630;-60
2023/07/01 10:00:57;;;;;;;12.07;10.20;;;;;;;;;;768445;182;826629;-61
2023/07/01 10:03:22;;;;;;;10.43;9.37;;;;;;;;;;760779;180;800163;-66
2023/07/01 10:05:48;;;;;;;10.00;9.00;;;;;;;;;;755857;184;919819;-67
2023/07/01 10:08:13;;;;;;;11.93;10.40;;;;;;;;;;766823;182;917948;-65
2023/07/01 10:10:39;;;;;;;11.10;9.90;;;;;;;;;;761538;182;918288;-65
2023/07/01 10:13:05;;;;;;;11.43;10.23;;;;;;;;;;765297;182;844393;-65
2023/07/01 10:15:31;;;;;;;11.17;10.10;;;;;;;;;;762212;182;918811;-59
2023/07/01 10:17:57;;;;;;;11.20;9.93;;;;;;;;;;768501;181;916524;-65
2023/07/01 10:20:24;;;;;;;12.10;9.40;;;;;;;;;;764081;182;913877;-65
2023/07/01 10:22:53;;;;;;;11.30;9.57;;;;;;;;;;759215;183;912338;-65
2023/07/01 10:25:19;;;;;;;12.90;9.37;;;;;;;;;;767842;182;919408;-66
2023/07/01 10:27:44;;;;;;;10.37;9.37;;;;;;;;;;760878;182;918538;-65
2023/07/01 10:30:11;;;;;;;12.57;10.13;;;;;;;;;;764635;182;918330;-66
2023/07/01 10:32:37;;;;;;;12.27;10.00;;;;;;;;;;759693;182;921838;-60
2023/07/01 10:35:07;;;;;;;11.77;9.57;;;;;;;;;;766140;182;919970;-65
2023/07/01 10:37:33;;;;;;;14.77;9.90;;;;;;;;;;759775;182;818815;-65
2023/07/01 10:39:59;;;;;;;11.37;9.47;;;;;;;;;;754323;182;919515;-65
2023/07/01 10:42:31;;;;;;;9.60;8.57;;;;;;;;;;755736;184;919697;-65
2023/07/01 10:44:52;;;;;;;11.27;9.80;;;;;;;;;;763471;182;919434;-65
2023/07/01 10:47:18;;;;;;;10.13;8.33;;;;;;;;;;760334;182;818952;-65
2023/07/01 10:50:03;;;;;;;11.10;8.17;;;;;;;;;;758210;182;920477;-60
2023/07/01 10:52:29;;;;;;;12.30;9.70;;;;;;;;;;751527;187;919215;-65
2023/07/01 10:54:55;;;;;;;15.60;8.73;;;;;;;;;;767041;182;817899;-65
2023/07/01 10:57:21;;;;;;;13.17;8.73;;;;;;;;;;760979;182;917126;-61
2023/07/01 10:59:47;;;;;;;13.27;9.50;;;;;;;;;;759534;181;916968;-65
2023/07/01 11:02:19;;;;;;;11.50;9.63;;;;;;;;;;769555;180;898183;-65
2023/07/01 11:05:07;;;;;;;11.97;10.13;;;;;;;;;;752291;183;920205;-60
2023/07/01 11:07:32;;;;;;;12.97;9.60;;;;;;;;;;761902;182;823725;-61
2023/07/01 11:09:58;;;;;;;12.50;9.20;;;;;;;;;;764135;182;918111;-62
2023/07/01 11:12:24;;;;;;;11.37;9.10;;;;;;;;;;768979;182;642162;-61
2023/07/01 11:14:50;;;;;;;15.13;9.00;;;;;;;;;;769232;181;640470;-65
2023/07/01 11:17:15;;;;;;;10.17;9.03;;;;;;;;;;768386;182;636478;-61
2023/07/01 11:19:44;;;;;;;11.33;8.50;;;;;;;;;;762631;182;630192;-60
2023/07/01 11:22:07;;;;;;;64.87;22.00;;;;;;;;;;767931;182;636926;-61
2023/07/01 11:24:34;;;;;;;26.53;12.67;;;;;;;;;;756240;182;640229;-65
2023/07/01 11:26:59;;;;;;;70.03;22.70;;;;;;;;;;757260;184;638232;-61
2023/07/01 11:29:25;;;;;;;15.07;10.00;;;;;;;;;;768515;179;623816;-60
2023/07/01 11:32:04;;;;;;;11.73;10.53;;;;;;;;;;761237;183;628401;-61
2023/07/01 11:34:30;;;;;;;13.17;10.70;;;;;;;;;;768001;182;631539;-60
2023/07/01 11:36:56;;;;;;;12.83;10.00;;;;;;;;;;760809;182;623281;-65
2023/07/01 11:39:22;;;;;;;12.50;9.70;;;;;;;;;;762478;182;619029;-66
2023/07/01 11:41:50;;;;;;;16.00;10.30;;;;;;;;;;767984;182;626020;-60
2023/07/01 11:44:16;;;;;;;14.30;10.27;;;;;;;;;;752081;186;627882;-66
2023/07/01 11:46:42;;;;;;;12.67;9.70;;;;;;;;;;762332;182;628075;-66
2023/07/01 11:49:13;;;;;;;14.00;11.33;;;;;;;;;;768272;184;609516;-60
2023/07/01 11:51:39;;;;;;;15.27;11.30;;;;;;;;;;759249;181;621711;-63
2023/07/01 11:54:05;;;;;;;16.40;11.27;;;;;;;;;;768627;179;642430;-60
2023/07/01 11:56:31;;;;;;;15.97;11.77;;;;;;;;;;766313;180;626187;-66
2023/07/01 11:58:56;;;;;;;15.10;11.60;;;;;;;;;;765368;182;918365;-66
2023/07/01 12:01:23;;;;;;;18.20;12.37;;;;;;;;;;748737;185;918743;-66
2023/07/01 12:03:49;;;;;;;15.20;11.37;;;;;;;;;;764698;182;919456;-66
2023/07/01 12:06:17;;;;;;;22.20;10.90;;;;;;;;;;764715;182;918429;-66
2023/07/01 12:08:49;;;;;;;13.03;10.77;;;;;;;;;;756431;184;886236;-67
2023/07/01 12:11:14;;;;;;;19.30;11.20;;;;;;;;;;759776;183;920969;-66
2023/07/01 12:13:40;;;;;;;15.50;11.30;;;;;;;;;;765870;182;918940;-66
2023/07/01 12:16:06;;;;;;;15.17;10.70;;;;;;;;;;768884;182;918194;-67
2023/07/01 12:18:32;;;;;;;16.13;11.67;;;;;;;;;;763204;182;922744;-60
2023/07/01 12:20:58;;;;;;;18.40;12.73;;;;;;;;;;764684;182;918898;-61
2023/07/01 12:23:24;;;;;;;15.07;10.67;;;;;;;;;;770942;179;919740;-61
2023/07/01 12:25:50;;;;;;;13.23;10.87;;;;;;;;;;748557;184;921598;-66
2023/07/01 12:28:19;;;;;;;16.50;12.07;;;;;;;;;;756909;182;907456;-61
2023/07/01 12:30:44;;;;;;;13.67;11.37;;;;;;;;;;758982;182;920708;-62
2023/07/01 12:33:10;;;;;;;17.87;12.40;;;;;;;;;;770678;181;818298;-66
2023/07/01 12:35:36;;;;;;;15.73;11.10;;;;;;;;;;761730;182;818928;-61
2023/07/01 12:38:02;;;;;;;13.27;11.45;;;;;;;;;;759841;182;919655;-67
2023/07/01 12:40:28;;;;;;;18.10;11.77;;;;;;;;;;761984;183;918882;-61
2023/07/01 12:42:54;;;;;;;14.10;11.23;;;;;;;;;;761460;182;919574;-67
2023/07/01 12:45:19;;;;;;;12.30;9.57;;;;;;;;;;754681;182;919031;-67
2023/07/01 12:47:45;;;;;;;14.50;10.10;;;;;;;;;;762409;182;918153;-67
2023/07/01 12:50:11;;;;;;;15.47;11.97;;;;;;;;;;763678;182;924004;-68
2023/07/01 12:52:37;;;;;;;12.07;10.67;;;;;;;;;;760440;182;853252;-61
2023/07/01 12:55:03;;;;;;;15.33;12.87;;;;;;;;;;764151;180;918795;-61
2023/07/01 12:57:29;;;;;;;13.03;10.47;;;;;;;;;;764158;183;911849;-61
2023/07/01 12:59:55;;;;;;;14.40;10.90;;;;;;;;;;765755;182;912285;-61
2023/07/01 13:02:21;;;;;;;16.57;11.60;;;;;;;;;;762460;182;947066;-64
2023/07/01 13:04:47;;;;;;;12.10;10.67;;;;;;;;;;756686;184;894263;-62
2023/07/01 13:07:15;;;;;;;16.33;12.20;;;;;;;;;;766253;182;918975;-61
2023/07/01 13:09:42;;;;;;;12.77;10.70;;;;;;;;;;764471;180;922142;-63
2023/07/01 13:12:08;;;;;;;13.97;10.77;;;;;;;;;;751997;187;920153;-65
2023/07/01 13:14:33;;;;;;;13.33;10.40;;;;;;;;;;755957;182;919271;-65
2023/07/01 13:16:59;;;;;;;12.70;10.07;;;;;;;;;;759566;182;824614;-65
2023/07/01 13:19:25;;;;;;;13.60;9.87;;;;;;;;;;761318;181;921023;-66
2023/07/01 13:21:51;;;;;;;14.53;10.43;;;;;;;;;;765929;180;917137;-65
2023/07/01 13:24:17;;;;;;;13.60;11.20;;;;;;;;;;755889;183;921917;-66
2023/07/01 13:26:43;;;;;;;13.17;10.33;;;;;;;;;;766360;182;918760;-66
2023/07/01 13:29:12;;;;;;;13.10;10.23;;;;;;;;;;768682;179;919110;-66
2023/07/01 13:31:38;;;;;;;11.13;9.23;;;;;;;;;;752401;184;919307;-66
2023/07/01 13:34:04;;;;;;;11.32;9.25;;;;;;;;;;762946;181;805893;-63
2023/07/01 13:36:31;;;;;;;12.45;9.88;;;;;;;;;;768092;182;919063;-66
2023/07/01 13:38:56;;;;;;;12.10;9.73;;;;;;;;;;760239;183;918274;-65
2023/07/01 13:41:22;;;;;;;13.27;10.70;;;;;;;;;;759167;182;918325;-66
2023/07/01 13:43:48;;;;;;;13.65;10.30;;;;;;;;;;760723;182;923575;-62
2023/07/01 13:46:13;;;;;;;11.53;9.97;;;;;;;;;;768532;181;912650;-64
2023/07/01 13:48:42;;;;;;;13.20;9.87;;;;;;;;;;759050;182;912719;-66
2023/07/01 13:51:05;;;;;;;13.70;10.20;;;;;;;;;;756491;182;914025;-66
2023/07/01 13:53:32;;;;;;;12.40;10.10;;;;;;;;;;767586;182;933173;-62
2023/07/01 13:55:57;;;;;;;12.97;9.20;;;;;;;;;;757410;182;899479;-66
2023/07/01 13:58:23;;;;;;;11.33;9.97;;;;;;;;;;760422;182;913702;-62
2023/07/01 14:00:49;;;;;;;13.07;10.10;;;;;;;;;;767891;182;911372;-62